sensor_id;sensor_type;location;lat;lon;timestamp;P1;durP1;ratioP1;P2;durP2;ratioP2
75261;SDS011;63859;51.064;4.580;2023-07-13T00:02:22;8.57;;;2.22;;
75261;SDS011;63859;51.064;4.580;2023-07-13T00:04:49;8.63;;;2.03;;
75261;SDS011;63859;51.064;4.580;2023-07-13T00:07:15;10.30;;;2.20;;
75261;SDS011;63859;51.064;4.580;2023-07-13T00:09:41;6.95;;;2.25;;
75261;SDS011;63859;51.064;4.580;2023-07-13T00:12:19;7.45;;;2.38;;
75261;SDS011;63859;51.064;4.580;2023-07-13T00:14:55;9.98;;;2.15;;
75261;SDS011;63859;51.064;4.580;2023-07-13T00:17:22;8.52;;;2.40;;
75261;SDS011;63859;51.064;4.580;2023-07-13T00:19:48;14.80;;;2.50;;
75261;SDS011;63859;51.064;4.580;2023-07-13T00:22:14;8.02;;;2.28;;
75261;SDS011;63859;51.064;4.580;2023-07-13T00:24:39;9.85;;;2.60;;
75261;SDS011;63859;51.064;4.580;2023-07-13T00:27:07;6.45;;;2.50;;
75261;SDS011;63859;51.064;4.580;2023-07-13T00:29:34;10.00;;;2.60;;
75261;SDS011;63859;51.064;4.580;2023-07-13T00:32:01;7.78;;;2.03;;
75261;SDS011;63859;51.064;4.580;2023-07-13T00:34:27;12.25;;;2.92;;
75261;SDS011;63859;51.064;4.580;2023-07-13T00:36:53;9.48;;;2.03;;
75261;SDS011;63859;51.064;4.580;2023-07-13T00:39:19;9.20;;;2.13;;
75261;SDS011;63859;51.064;4.580;2023-07-13T00:41:46;11.65;;;2.45;;
75261;SDS011;63859;51.064;4.580;2023-07-13T00:44:15;6.93;;;2.13;;
75261;SDS011;63859;51.064;4.580;2023-07-13T00:46:44;11.25;;;2.35;;
75261;SDS011;63859;51.064;4.580;2023-07-13T00:49:13;9.43;;;2.60;;
75261;SDS011;63859;51.064;4.580;2023-07-13T00:52:00;11.15;;;2.38;;
75261;SDS011;63859;51.064;4.580;2023-07-13T00:54:35;7.45;;;2.35;;
75261;SDS011;63859;51.064;4.580;2023-07-13T00:57:07;11.30;;;2.50;;
75261;SDS011;63859;51.064;4.580;2023-07-13T00:59:36;7.55;;;1.92;;
75261;SDS011;63859;51.064;4.580;2023-07-13T01:02:04;9.68;;;2.38;;
75261;SDS011;63859;51.064;4.580;2023-07-13T01:04:30;9.73;;;2.38;;
75261;SDS011;63859;51.064;4.580;2023-07-13T01:06:56;10.50;;;2.35;;
75261;SDS011;63859;51.064;4.580;2023-07-13T01:09:22;6.78;;;2.40;;
75261;SDS011;63859;51.064;4.580;2023-07-13T01:11:48;8.85;;;2.63;;
75261;SDS011;63859;51.064;4.580;2023-07-13T01:14:14;7.88;;;2.63;;
75261;SDS011;63859;51.064;4.580;2023-07-13T01:16:41;9.38;;;2.38;;
75261;SDS011;63859;51.064;4.580;2023-07-13T01:19:14;9.32;;;2.63;;
75261;SDS011;63859;51.064;4.580;2023-07-13T01:21:50;8.88;;;2.08;;
75261;SDS011;63859;51.064;4.580;2023-07-13T01:24:16;7.88;;;2.60;;
75261;SDS011;63859;51.064;4.580;2023-07-13T01:26:42;9.52;;;2.40;;
75261;SDS011;63859;51.064;4.580;2023-07-13T01:29:08;7.03;;;2.45;;
75261;SDS011;63859;51.064;4.580;2023-07-13T01:31:33;6.57;;;2.38;;
75261;SDS011;63859;51.064;4.580;2023-07-13T01:34:00;12.13;;;2.80;;
75261;SDS011;63859;51.064;4.580;2023-07-13T01:36:25;8.88;;;3.28;;
75261;SDS011;63859;51.064;4.580;2023-07-13T01:38:51;9.05;;;2.63;;
75261;SDS011;63859;51.064;4.580;2023-07-13T01:41:17;11.65;;;2.55;;
75261;SDS011;63859;51.064;4.580;2023-07-13T01:43:42;8.43;;;2.55;;
75261;SDS011;63859;51.064;4.580;2023-07-13T01:46:08;10.32;;;2.70;;
75261;SDS011;63859;51.064;4.580;2023-07-13T01:48:34;10.75;;;2.85;;
75261;SDS011;63859;51.064;4.580;2023-07-13T01:50:59;8.18;;;2.58;;
75261;SDS011;63859;51.064;4.580;2023-07-13T01:53:25;9.40;;;2.63;;
75261;SDS011;63859;51.064;4.580;2023-07-13T01:55:51;6.82;;;2.45;;
75261;SDS011;63859;51.064;4.580;2023-07-13T01:58:16;7.65;;;2.58;;
75261;SDS011;63859;51.064;4.580;2023-07-13T02:00:42;12.32;;;2.90;;
75261;SDS011;63859;51.064;4.580;2023-07-13T02:03:07;10.57;;;2.70;;
75261;SDS011;63859;51.064;4.580;2023-07-13T02:05:33;10.48;;;2.60;;
75261;SDS011;63859;51.064;4.580;2023-07-13T02:07:59;13.00;;;2.90;;
75261;SDS011;63859;51.064;4.580;2023-07-13T02:10:24;9.18;;;2.58;;
75261;SDS011;63859;51.064;4.580;2023-07-13T02:12:50;11.70;;;3.20;;
75261;SDS011;63859;51.064;4.580;2023-07-13T02:15:16;11.40;;;2.72;;
75261;SDS011;63859;51.064;4.580;2023-07-13T02:17:42;8.50;;;2.63;;
75261;SDS011;63859;51.064;4.580;2023-07-13T02:20:08;9.18;;;2.50;;
75261;SDS011;63859;51.064;4.580;2023-07-13T02:22:34;8.93;;;2.67;;
75261;SDS011;63859;51.064;4.580;2023-07-13T02:25:00;6.97;;;2.70;;
75261;SDS011;63859;51.064;4.580;2023-07-13T02:27:26;11.07;;;2.88;;
75261;SDS011;63859;51.064;4.580;2023-07-13T02:29:52;10.32;;;2.53;;
75261;SDS011;63859;51.064;4.580;2023-07-13T02:32:18;13.30;;;3.00;;
75261;SDS011;63859;51.064;4.580;2023-07-13T02:34:43;9.98;;;2.50;;
75261;SDS011;63859;51.064;4.580;2023-07-13T02:37:10;11.85;;;2.67;;
75261;SDS011;63859;51.064;4.580;2023-07-13T02:39:35;9.23;;;2.88;;
75261;SDS011;63859;51.064;4.580;2023-07-13T02:42:01;12.88;;;2.60;;
75261;SDS011;63859;51.064;4.580;2023-07-13T02:44:27;14.02;;;2.65;;
75261;SDS011;63859;51.064;4.580;2023-07-13T02:46:52;12.02;;;2.90;;
75261;SDS011;63859;51.064;4.580;2023-07-13T02:49:18;15.73;;;3.00;;
75261;SDS011;63859;51.064;4.580;2023-07-13T02:51:44;12.10;;;3.10;;
75261;SDS011;63859;51.064;4.580;2023-07-13T02:54:09;8.90;;;3.10;;
75261;SDS011;63859;51.064;4.580;2023-07-13T02:56:36;13.55;;;2.92;;
75261;SDS011;63859;51.064;4.580;2023-07-13T02:59:04;14.27;;;3.28;;
75261;SDS011;63859;51.064;4.580;2023-07-13T03:01:29;11.88;;;3.13;;
75261;SDS011;63859;51.064;4.580;2023-07-13T03:03:55;11.93;;;3.03;;
75261;SDS011;63859;51.064;4.580;2023-07-13T03:06:21;14.30;;;3.20;;
75261;SDS011;63859;51.064;4.580;2023-07-13T03:08:47;15.23;;;3.03;;
75261;SDS011;63859;51.064;4.580;2023-07-13T03:11:15;9.90;;;2.60;;
75261;SDS011;63859;51.064;4.580;2023-07-13T03:13:42;9.07;;;2.72;;
75261;SDS011;63859;51.064;4.580;2023-07-13T03:16:09;11.90;;;3.22;;
75261;SDS011;63859;51.064;4.580;2023-07-13T03:18:35;14.73;;;3.47;;
75261;SDS011;63859;51.064;4.580;2023-07-13T03:21:02;11.48;;;3.20;;
75261;SDS011;63859;51.064;4.580;2023-07-13T03:23:27;11.07;;;2.88;;
75261;SDS011;63859;51.064;4.580;2023-07-13T03:26:07;11.05;;;2.92;;
75261;SDS011;63859;51.064;4.580;2023-07-13T03:28:38;13.43;;;2.97;;
75261;SDS011;63859;51.064;4.580;2023-07-13T03:31:09;11.30;;;3.13;;
75261;SDS011;63859;51.064;4.580;2023-07-13T03:33:37;11.30;;;2.90;;
75261;SDS011;63859;51.064;4.580;2023-07-13T03:36:03;14.10;;;3.10;;
75261;SDS011;63859;51.064;4.580;2023-07-13T03:38:30;12.90;;;3.10;;
75261;SDS011;63859;51.064;4.580;2023-07-13T03:40:56;11.88;;;3.28;;
75261;SDS011;63859;51.064;4.580;2023-07-13T03:43:21;13.85;;;3.50;;
75261;SDS011;63859;51.064;4.580;2023-07-13T03:45:47;12.07;;;3.28;;
75261;SDS011;63859;51.064;4.580;2023-07-13T03:48:13;11.45;;;3.53;;
75261;SDS011;63859;51.064;4.580;2023-07-13T03:50:39;14.48;;;3.38;;
75261;SDS011;63859;51.064;4.580;2023-07-13T03:53:05;12.82;;;3.10;;
75261;SDS011;63859;51.064;4.580;2023-07-13T03:55:31;16.23;;;3.80;;
75261;SDS011;63859;51.064;4.580;2023-07-13T03:57:58;16.33;;;3.72;;
75261;SDS011;63859;51.064;4.580;2023-07-13T04:00:44;16.40;;;3.95;;
75261;SDS011;63859;51.064;4.580;2023-07-13T04:03:09;10.75;;;3.33;;
75261;SDS011;63859;51.064;4.580;2023-07-13T04:05:35;13.18;;;3.78;;
75261;SDS011;63859;51.064;4.580;2023-07-13T04:08:01;14.55;;;3.47;;
75261;SDS011;63859;51.064;4.580;2023-07-13T04:10:26;12.55;;;3.45;;
75261;SDS011;63859;51.064;4.580;2023-07-13T04:12:52;13.40;;;3.60;;
75261;SDS011;63859;51.064;4.580;2023-07-13T04:15:17;12.38;;;3.55;;
75261;SDS011;63859;51.064;4.580;2023-07-13T04:17:43;11.02;;;3.53;;
75261;SDS011;63859;51.064;4.580;2023-07-13T04:20:09;20.73;;;3.70;;
75261;SDS011;63859;51.064;4.580;2023-07-13T04:22:35;18.98;;;3.33;;
75261;SDS011;63859;51.064;4.580;2023-07-13T04:25:00;16.40;;;3.63;;
75261;SDS011;63859;51.064;4.580;2023-07-13T04:27:26;17.05;;;3.97;;
75261;SDS011;63859;51.064;4.580;2023-07-13T04:29:53;16.88;;;4.07;;
75261;SDS011;63859;51.064;4.580;2023-07-13T04:32:19;12.48;;;3.80;;
75261;SDS011;63859;51.064;4.580;2023-07-13T04:34:45;15.80;;;3.40;;
75261;SDS011;63859;51.064;4.580;2023-07-13T04:37:10;12.80;;;3.28;;
75261;SDS011;63859;51.064;4.580;2023-07-13T04:39:36;13.15;;;3.28;;
75261;SDS011;63859;51.064;4.580;2023-07-13T04:42:02;14.95;;;3.60;;
75261;SDS011;63859;51.064;4.580;2023-07-13T04:44:28;16.75;;;3.40;;
75261;SDS011;63859;51.064;4.580;2023-07-13T04:46:54;21.23;;;4.57;;
75261;SDS011;63859;51.064;4.580;2023-07-13T04:49:20;14.70;;;4.20;;
75261;SDS011;63859;51.064;4.580;2023-07-13T04:51:45;15.25;;;3.75;;
75261;SDS011;63859;51.064;4.580;2023-07-13T04:54:11;13.73;;;4.03;;
75261;SDS011;63859;51.064;4.580;2023-07-13T04:56:36;19.33;;;4.07;;
75261;SDS011;63859;51.064;4.580;2023-07-13T04:59:02;14.82;;;3.35;;
75261;SDS011;63859;51.064;4.580;2023-07-13T05:01:28;19.73;;;4.40;;
75261;SDS011;63859;51.064;4.580;2023-07-13T05:03:53;18.30;;;3.70;;
75261;SDS011;63859;51.064;4.580;2023-07-13T05:06:22;11.77;;;3.92;;
75261;SDS011;63859;51.064;4.580;2023-07-13T05:08:48;18.10;;;3.65;;
75261;SDS011;63859;51.064;4.580;2023-07-13T05:11:14;16.92;;;4.45;;
75261;SDS011;63859;51.064;4.580;2023-07-13T05:13:39;13.50;;;3.30;;
75261;SDS011;63859;51.064;4.580;2023-07-13T05:16:05;12.45;;;3.75;;
75261;SDS011;63859;51.064;4.580;2023-07-13T05:18:32;13.73;;;4.13;;
75261;SDS011;63859;51.064;4.580;2023-07-13T05:20:59;9.88;;;3.10;;
75261;SDS011;63859;51.064;4.580;2023-07-13T05:23:26;15.65;;;3.75;;
75261;SDS011;63859;51.064;4.580;2023-07-13T05:25:52;18.90;;;3.92;;
75261;SDS011;63859;51.064;4.580;2023-07-13T05:28:17;20.02;;;4.07;;
75261;SDS011;63859;51.064;4.580;2023-07-13T05:30:46;13.68;;;3.55;;
75261;SDS011;63859;51.064;4.580;2023-07-13T05:33:13;14.75;;;3.95;;
75261;SDS011;63859;51.064;4.580;2023-07-13T05:35:39;15.43;;;3.72;;
75261;SDS011;63859;51.064;4.580;2023-07-13T05:38:05;15.90;;;4.15;;
75261;SDS011;63859;51.064;4.580;2023-07-13T05:40:31;13.88;;;3.58;;
75261;SDS011;63859;51.064;4.580;2023-07-13T05:42:57;17.67;;;4.05;;
75261;SDS011;63859;51.064;4.580;2023-07-13T05:45:22;13.07;;;3.83;;
75261;SDS011;63859;51.064;4.580;2023-07-13T05:47:48;17.20;;;4.20;;
75261;SDS011;63859;51.064;4.580;2023-07-13T05:50:13;15.15;;;3.92;;
75261;SDS011;63859;51.064;4.580;2023-07-13T05:52:39;15.77;;;4.13;;
75261;SDS011;63859;51.064;4.580;2023-07-13T05:55:05;18.65;;;3.72;;
75261;SDS011;63859;51.064;4.580;2023-07-13T05:57:30;17.90;;;4.03;;
75261;SDS011;63859;51.064;4.580;2023-07-13T05:59:56;17.77;;;3.60;;
75261;SDS011;63859;51.064;4.580;2023-07-13T06:02:22;14.70;;;3.90;;
75261;SDS011;63859;51.064;4.580;2023-07-13T06:04:48;17.15;;;3.90;;
75261;SDS011;63859;51.064;4.580;2023-07-13T06:07:14;20.75;;;3.95;;
75261;SDS011;63859;51.064;4.580;2023-07-13T06:09:40;22.10;;;4.63;;
75261;SDS011;63859;51.064;4.580;2023-07-13T06:12:06;15.63;;;3.67;;
75261;SDS011;63859;51.064;4.580;2023-07-13T06:14:32;16.48;;;3.95;;
75261;SDS011;63859;51.064;4.580;2023-07-13T06:16:57;18.50;;;4.28;;
75261;SDS011;63859;51.064;4.580;2023-07-13T06:19:23;20.00;;;4.32;;
75261;SDS011;63859;51.064;4.580;2023-07-13T06:21:48;14.32;;;4.40;;
75261;SDS011;63859;51.064;4.580;2023-07-13T06:24:14;13.65;;;3.70;;
75261;SDS011;63859;51.064;4.580;2023-07-13T06:26:40;11.27;;;3.65;;
75261;SDS011;63859;51.064;4.580;2023-07-13T06:29:05;15.85;;;4.32;;
75261;SDS011;63859;51.064;4.580;2023-07-13T06:31:31;15.30;;;3.92;;
75261;SDS011;63859;51.064;4.580;2023-07-13T06:33:57;19.38;;;4.40;;
75261;SDS011;63859;51.064;4.580;2023-07-13T06:36:22;19.98;;;4.38;;
75261;SDS011;63859;51.064;4.580;2023-07-13T06:38:48;18.70;;;3.95;;
75261;SDS011;63859;51.064;4.580;2023-07-13T06:41:14;18.02;;;4.75;;
75261;SDS011;63859;51.064;4.580;2023-07-13T06:43:39;17.13;;;4.22;;
75261;SDS011;63859;51.064;4.580;2023-07-13T06:46:05;13.52;;;3.78;;
75261;SDS011;63859;51.064;4.580;2023-07-13T06:48:31;13.43;;;4.10;;
75261;SDS011;63859;51.064;4.580;2023-07-13T06:50:57;13.10;;;3.90;;
75261;SDS011;63859;51.064;4.580;2023-07-13T06:53:23;13.38;;;3.60;;
75261;SDS011;63859;51.064;4.580;2023-07-13T06:55:48;16.40;;;4.13;;
75261;SDS011;63859;51.064;4.580;2023-07-13T06:58:15;15.70;;;3.75;;
75261;SDS011;63859;51.064;4.580;2023-07-13T07:00:42;13.45;;;3.50;;
75261;SDS011;63859;51.064;4.580;2023-07-13T07:03:08;21.63;;;4.60;;
75261;SDS011;63859;51.064;4.580;2023-07-13T07:05:33;16.00;;;4.18;;
75261;SDS011;63859;51.064;4.580;2023-07-13T07:07:59;18.75;;;4.30;;
75261;SDS011;63859;51.064;4.580;2023-07-13T07:10:25;16.52;;;3.65;;
75261;SDS011;63859;51.064;4.580;2023-07-13T07:12:51;14.40;;;3.88;;
75261;SDS011;63859;51.064;4.580;2023-07-13T07:15:17;19.08;;;4.05;;
75261;SDS011;63859;51.064;4.580;2023-07-13T07:17:43;18.80;;;4.20;;
75261;SDS011;63859;51.064;4.580;2023-07-13T07:20:09;14.15;;;4.20;;
75261;SDS011;63859;51.064;4.580;2023-07-13T07:22:35;17.58;;;4.13;;
75261;SDS011;63859;51.064;4.580;2023-07-13T07:25:00;20.17;;;4.15;;
75261;SDS011;63859;51.064;4.580;2023-07-13T07:27:26;17.80;;;3.92;;
75261;SDS011;63859;51.064;4.580;2023-07-13T07:29:52;18.17;;;3.83;;
75261;SDS011;63859;51.064;4.580;2023-07-13T07:32:18;15.18;;;4.70;;
75261;SDS011;63859;51.064;4.580;2023-07-13T07:34:45;12.20;;;3.78;;
75261;SDS011;63859;51.064;4.580;2023-07-13T07:37:11;13.32;;;4.30;;
75261;SDS011;63859;51.064;4.580;2023-07-13T07:39:38;13.80;;;4.20;;
75261;SDS011;63859;51.064;4.580;2023-07-13T07:42:04;18.30;;;4.22;;
75261;SDS011;63859;51.064;4.580;2023-07-13T07:44:32;16.55;;;4.13;;
75261;SDS011;63859;51.064;4.580;2023-07-13T07:46:59;16.15;;;4.88;;
75261;SDS011;63859;51.064;4.580;2023-07-13T07:49:24;18.48;;;4.32;;
75261;SDS011;63859;51.064;4.580;2023-07-13T07:51:50;19.23;;;3.97;;
75261;SDS011;63859;51.064;4.580;2023-07-13T07:54:16;19.63;;;4.15;;
75261;SDS011;63859;51.064;4.580;2023-07-13T07:56:42;14.10;;;3.80;;
75261;SDS011;63859;51.064;4.580;2023-07-13T07:59:08;15.63;;;4.22;;
75261;SDS011;63859;51.064;4.580;2023-07-13T08:01:35;16.10;;;4.25;;
75261;SDS011;63859;51.064;4.580;2023-07-13T08:04:01;12.27;;;3.88;;
75261;SDS011;63859;51.064;4.580;2023-07-13T08:06:27;15.05;;;3.80;;
75261;SDS011;63859;51.064;4.580;2023-07-13T08:08:54;20.90;;;4.28;;
75261;SDS011;63859;51.064;4.580;2023-07-13T08:11:20;15.90;;;3.67;;
75261;SDS011;63859;51.064;4.580;2023-07-13T08:13:46;12.30;;;3.85;;
75261;SDS011;63859;51.064;4.580;2023-07-13T08:16:12;15.30;;;3.83;;
75261;SDS011;63859;51.064;4.580;2023-07-13T08:18:37;16.45;;;3.75;;
75261;SDS011;63859;51.064;4.580;2023-07-13T08:21:06;12.88;;;4.07;;
75261;SDS011;63859;51.064;4.580;2023-07-13T08:23:33;15.20;;;3.85;;
75261;SDS011;63859;51.064;4.580;2023-07-13T08:25:59;15.85;;;3.63;;
75261;SDS011;63859;51.064;4.580;2023-07-13T08:28:26;10.63;;;3.67;;
75261;SDS011;63859;51.064;4.580;2023-07-13T08:30:52;10.77;;;3.63;;
75261;SDS011;63859;51.064;4.580;2023-07-13T08:33:19;14.68;;;3.53;;
75261;SDS011;63859;51.064;4.580;2023-07-13T08:35:46;14.65;;;3.80;;
75261;SDS011;63859;51.064;4.580;2023-07-13T08:38:15;10.77;;;3.03;;
75261;SDS011;63859;51.064;4.580;2023-07-13T08:40:41;10.10;;;3.50;;
75261;SDS011;63859;51.064;4.580;2023-07-13T08:43:17;6.90;;;3.15;;
75261;SDS011;63859;51.064;4.580;2023-07-13T08:45:50;13.07;;;3.15;;
75261;SDS011;63859;51.064;4.580;2023-07-13T08:54:05;21.08;;;3.60;;
75261;SDS011;63859;51.064;4.580;2023-07-13T08:56:43;19.63;;;4.18;;
75261;SDS011;63859;51.064;4.580;2023-07-13T08:59:11;15.77;;;3.17;;
75261;SDS011;63859;51.064;4.580;2023-07-13T09:04:42;8.63;;;2.80;;
75261;SDS011;63859;51.064;4.580;2023-07-13T09:10:17;11.20;;;3.10;;
75261;SDS011;63859;51.064;4.580;2023-07-13T09:15:43;10.20;;;3.00;;
75261;SDS011;63859;51.064;4.580;2023-07-13T09:21:05;7.28;;;2.78;;
75261;SDS011;63859;51.064;4.580;2023-07-13T09:23:35;12.68;;;3.22;;
75261;SDS011;63859;51.064;4.580;2023-07-13T09:26:06;7.80;;;2.97;;
75261;SDS011;63859;51.064;4.580;2023-07-13T09:28:43;8.05;;;2.75;;
75261;SDS011;63859;51.064;4.580;2023-07-13T09:31:14;13.48;;;2.90;;
75261;SDS011;63859;51.064;4.580;2023-07-13T09:33:43;6.38;;;2.90;;
75261;SDS011;63859;51.064;4.580;2023-07-13T09:38:58;7.05;;;2.40;;
75261;SDS011;63859;51.064;4.580;2023-07-13T09:41:36;7.43;;;2.63;;
75261;SDS011;63859;51.064;4.580;2023-07-13T09:44:15;11.10;;;2.40;;
75261;SDS011;63859;51.064;4.580;2023-07-13T09:46:44;6.13;;;2.38;;
75261;SDS011;63859;51.064;4.580;2023-07-13T09:49:12;11.60;;;2.50;;
75261;SDS011;63859;51.064;4.580;2023-07-13T09:51:40;7.85;;;2.45;;
75261;SDS011;63859;51.064;4.580;2023-07-13T09:54:16;7.82;;;2.22;;
75261;SDS011;63859;51.064;4.580;2023-07-13T09:56:46;11.70;;;2.80;;
75261;SDS011;63859;51.064;4.580;2023-07-13T09:59:18;11.95;;;2.75;;
75261;SDS011;63859;51.064;4.580;2023-07-13T10:01:45;7.43;;;2.72;;
75261;SDS011;63859;51.064;4.580;2023-07-13T10:04:13;9.15;;;2.75;;
75261;SDS011;63859;51.064;4.580;2023-07-13T10:06:43;11.57;;;2.60;;
75261;SDS011;63859;51.064;4.580;2023-07-13T10:09:10;6.78;;;2.72;;
75261;SDS011;63859;51.064;4.580;2023-07-13T10:11:40;9.73;;;2.97;;
75261;SDS011;63859;51.064;4.580;2023-07-13T10:14:10;7.75;;;2.60;;
75261;SDS011;63859;51.064;4.580;2023-07-13T10:16:42;8.27;;;2.22;;
75261;SDS011;63859;51.064;4.580;2023-07-13T10:21:47;7.97;;;2.03;;
75261;SDS011;63859;51.064;4.580;2023-07-13T10:29:44;9.00;;;2.70;;
75261;SDS011;63859;51.064;4.580;2023-07-13T10:32:25;6.80;;;2.10;;
75261;SDS011;63859;51.064;4.580;2023-07-13T10:34:51;8.82;;;2.40;;
75261;SDS011;63859;51.064;4.580;2023-07-13T10:37:25;7.45;;;2.50;;
75261;SDS011;63859;51.064;4.580;2023-07-13T10:39:52;9.43;;;2.50;;
75261;SDS011;63859;51.064;4.580;2023-07-13T10:42:35;11.45;;;2.58;;
75261;SDS011;63859;51.064;4.580;2023-07-13T10:45:18;8.10;;;2.38;;
75261;SDS011;63859;51.064;4.580;2023-07-13T10:47:46;7.45;;;2.03;;
75261;SDS011;63859;51.064;4.580;2023-07-13T10:50:18;8.23;;;2.10;;
75261;SDS011;63859;51.064;4.580;2023-07-13T10:52:47;7.78;;;2.30;;
75261;SDS011;63859;51.064;4.580;2023-07-13T11:01:08;7.85;;;2.20;;
75261;SDS011;63859;51.064;4.580;2023-07-13T11:03:46;6.97;;;2.33;;
75261;SDS011;63859;51.064;4.580;2023-07-13T11:18:50;8.43;;;2.15;;
75261;SDS011;63859;51.064;4.580;2023-07-13T11:21:28;8.13;;;2.28;;
75261;SDS011;63859;51.064;4.580;2023-07-13T11:24:15;7.32;;;2.40;;
75261;SDS011;63859;51.064;4.580;2023-07-13T11:26:42;6.63;;;2.05;;
75261;SDS011;63859;51.064;4.580;2023-07-13T11:29:54;7.55;;;2.00;;
75261;SDS011;63859;51.064;4.580;2023-07-13T11:32:19;6.05;;;1.92;;
75261;SDS011;63859;51.064;4.580;2023-07-13T11:34:51;6.05;;;2.40;;
75261;SDS011;63859;51.064;4.580;2023-07-13T11:37:19;6.88;;;2.30;;
75261;SDS011;63859;51.064;4.580;2023-07-13T11:39:45;5.65;;;2.17;;
75261;SDS011;63859;51.064;4.580;2023-07-13T11:42:15;9.35;;;2.53;;
75261;SDS011;63859;51.064;4.580;2023-07-13T11:44:45;8.75;;;3.05;;
75261;SDS011;63859;51.064;4.580;2023-07-13T11:47:19;7.18;;;2.30;;
75261;SDS011;63859;51.064;4.580;2023-07-13T11:49:53;7.95;;;2.60;;
75261;SDS011;63859;51.064;4.580;2023-07-13T11:52:30;6.60;;;2.53;;
75261;SDS011;63859;51.064;4.580;2023-07-13T11:55:00;6.93;;;2.22;;
75261;SDS011;63859;51.064;4.580;2023-07-13T11:57:33;7.82;;;3.03;;
75261;SDS011;63859;51.064;4.580;2023-07-13T12:00:15;6.07;;;2.50;;
75261;SDS011;63859;51.064;4.580;2023-07-13T12:02:50;12.70;;;2.80;;
75261;SDS011;63859;51.064;4.580;2023-07-13T12:05:18;10.35;;;2.42;;
75261;SDS011;63859;51.064;4.580;2023-07-13T12:07:48;7.93;;;2.78;;
75261;SDS011;63859;51.064;4.580;2023-07-13T12:13:03;8.15;;;2.95;;
75261;SDS011;63859;51.064;4.580;2023-07-13T12:15:40;6.57;;;2.97;;
75261;SDS011;63859;51.064;4.580;2023-07-13T12:18:18;8.52;;;2.88;;
75261;SDS011;63859;51.064;4.580;2023-07-13T12:20:46;9.68;;;3.00;;
75261;SDS011;63859;51.064;4.580;2023-07-13T12:25:59;6.97;;;2.17;;
75261;SDS011;63859;51.064;4.580;2023-07-13T12:31:06;8.88;;;3.30;;
75261;SDS011;63859;51.064;4.580;2023-07-13T12:33:39;10.68;;;3.08;;
75261;SDS011;63859;51.064;4.580;2023-07-13T12:36:06;8.07;;;3.20;;
75261;SDS011;63859;51.064;4.580;2023-07-13T12:38:36;5.75;;;2.58;;
75261;SDS011;63859;51.064;4.580;2023-07-13T12:41:02;5.60;;;2.30;;
75261;SDS011;63859;51.064;4.580;2023-07-13T12:43:28;4.40;;;2.30;;
75261;SDS011;63859;51.064;4.580;2023-07-13T12:46:03;4.82;;;2.63;;
75261;SDS011;63859;51.064;4.580;2023-07-13T12:48:40;4.15;;;2.35;;
75261;SDS011;63859;51.064;4.580;2023-07-13T12:51:09;5.00;;;2.28;;
75261;SDS011;63859;51.064;4.580;2023-07-13T12:54:05;4.03;;;2.30;;
75261;SDS011;63859;51.064;4.580;2023-07-13T12:56:30;4.97;;;2.20;;
75261;SDS011;63859;51.064;4.580;2023-07-13T12:58:59;5.97;;;2.40;;
75261;SDS011;63859;51.064;4.580;2023-07-13T13:01:29;3.72;;;2.50;;
75261;SDS011;63859;51.064;4.580;2023-07-13T13:04:00;3.92;;;2.50;;
75261;SDS011;63859;51.064;4.580;2023-07-13T13:06:31;2.75;;;2.20;;
75261;SDS011;63859;51.064;4.580;2023-07-13T13:08:58;4.25;;;2.35;;
75261;SDS011;63859;51.064;4.580;2023-07-13T13:11:25;3.92;;;2.33;;
75261;SDS011;63859;51.064;4.580;2023-07-13T13:13:52;5.93;;;2.58;;
75261;SDS011;63859;51.064;4.580;2023-07-13T13:18:49;5.20;;;2.38;;
75261;SDS011;63859;51.064;4.580;2023-07-13T13:21:17;3.10;;;1.98;;
75261;SDS011;63859;51.064;4.580;2023-07-13T13:23:43;4.35;;;2.10;;
75261;SDS011;63859;51.064;4.580;2023-07-13T13:26:15;4.65;;;2.13;;
75261;SDS011;63859;51.064;4.580;2023-07-13T13:28:44;2.65;;;2.17;;
75261;SDS011;63859;51.064;4.580;2023-07-13T13:31:11;5.63;;;2.35;;
75261;SDS011;63859;51.064;4.580;2023-07-13T13:33:43;5.28;;;2.35;;
75261;SDS011;63859;51.064;4.580;2023-07-13T13:36:18;6.47;;;2.30;;
75261;SDS011;63859;51.064;4.580;2023-07-13T13:38:45;4.32;;;2.25;;
75261;SDS011;63859;51.064;4.580;2023-07-13T13:41:13;4.07;;;2.47;;
75261;SDS011;63859;51.064;4.580;2023-07-13T13:43:39;6.03;;;2.10;;
75261;SDS011;63859;51.064;4.580;2023-07-13T13:46:16;5.32;;;2.13;;
75261;SDS011;63859;51.064;4.580;2023-07-13T13:48:44;4.80;;;2.10;;
75261;SDS011;63859;51.064;4.580;2023-07-13T13:51:15;6.65;;;2.42;;
75261;SDS011;63859;51.064;4.580;2023-07-13T13:53:45;4.18;;;2.58;;
75261;SDS011;63859;51.064;4.580;2023-07-13T13:56:12;6.47;;;2.08;;
75261;SDS011;63859;51.064;4.580;2023-07-13T13:58:39;7.75;;;2.40;;
75261;SDS011;63859;51.064;4.580;2023-07-13T14:01:05;5.45;;;2.28;;
75261;SDS011;63859;51.064;4.580;2023-07-13T14:03:41;5.50;;;2.30;;
75261;SDS011;63859;51.064;4.580;2023-07-13T14:06:11;4.35;;;2.22;;
75261;SDS011;63859;51.064;4.580;2023-07-13T14:08:38;5.80;;;2.13;;
75261;SDS011;63859;51.064;4.580;2023-07-13T14:11:04;4.70;;;2.15;;
75261;SDS011;63859;51.064;4.580;2023-07-13T14:13:32;5.32;;;2.00;;
75261;SDS011;63859;51.064;4.580;2023-07-13T14:16:12;5.78;;;1.95;;
75261;SDS011;63859;51.064;4.580;2023-07-13T14:18:42;3.83;;;2.20;;
75261;SDS011;63859;51.064;4.580;2023-07-13T14:21:13;2.90;;;1.85;;
75261;SDS011;63859;51.064;4.580;2023-07-13T14:23:39;6.10;;;2.17;;
75261;SDS011;63859;51.064;4.580;2023-07-13T14:26:13;4.30;;;2.45;;
75261;SDS011;63859;51.064;4.580;2023-07-13T14:28:46;5.05;;;2.30;;
75261;SDS011;63859;51.064;4.580;2023-07-13T14:31:14;3.55;;;2.05;;
75261;SDS011;63859;51.064;4.580;2023-07-13T14:33:41;6.57;;;2.03;;
75261;SDS011;63859;51.064;4.580;2023-07-13T14:38:47;3.60;;;2.20;;
75261;SDS011;63859;51.064;4.580;2023-07-13T14:41:13;7.97;;;2.28;;
75261;SDS011;63859;51.064;4.580;2023-07-13T14:43:39;6.28;;;2.10;;
75261;SDS011;63859;51.064;4.580;2023-07-13T14:46:04;5.90;;;2.28;;
75261;SDS011;63859;51.064;4.580;2023-07-13T14:48:30;4.28;;;2.08;;
75261;SDS011;63859;51.064;4.580;2023-07-13T14:50:56;4.38;;;1.70;;
75261;SDS011;63859;51.064;4.580;2023-07-13T14:53:25;8.88;;;2.80;;
75261;SDS011;63859;51.064;4.580;2023-07-13T14:55:52;3.70;;;2.10;;
75261;SDS011;63859;51.064;4.580;2023-07-13T14:58:18;4.60;;;2.20;;
75261;SDS011;63859;51.064;4.580;2023-07-13T15:00:44;7.75;;;2.00;;
75261;SDS011;63859;51.064;4.580;2023-07-13T15:03:18;4.18;;;2.00;;
75261;SDS011;63859;51.064;4.580;2023-07-13T15:05:46;4.50;;;2.10;;
75261;SDS011;63859;51.064;4.580;2023-07-13T15:08:13;4.80;;;1.85;;
75261;SDS011;63859;51.064;4.580;2023-07-13T15:10:40;4.78;;;2.20;;
75261;SDS011;63859;51.064;4.580;2023-07-13T15:13:13;6.43;;;2.00;;
75261;SDS011;63859;51.064;4.580;2023-07-13T15:15:39;6.90;;;2.05;;
75261;SDS011;63859;51.064;4.580;2023-07-13T15:18:08;6.68;;;2.10;;
75261;SDS011;63859;51.064;4.580;2023-07-13T15:20:36;4.97;;;1.98;;
75261;SDS011;63859;51.064;4.580;2023-07-13T15:23:02;5.80;;;2.08;;
75261;SDS011;63859;51.064;4.580;2023-07-13T15:25:30;5.72;;;1.70;;
75261;SDS011;63859;51.064;4.580;2023-07-13T15:27:58;5.30;;;2.10;;
75261;SDS011;63859;51.064;4.580;2023-07-13T15:33:24;5.18;;;1.90;;
75261;SDS011;63859;51.064;4.580;2023-07-13T15:35:52;6.00;;;2.10;;
75261;SDS011;63859;51.064;4.580;2023-07-13T15:38:22;3.40;;;1.80;;
75261;SDS011;63859;51.064;4.580;2023-07-13T15:40:50;4.68;;;2.00;;
75261;SDS011;63859;51.064;4.580;2023-07-13T15:43:17;5.47;;;1.70;;
75261;SDS011;63859;51.064;4.580;2023-07-13T15:45:44;5.32;;;1.90;;
75261;SDS011;63859;51.064;4.580;2023-07-13T15:50:43;4.70;;;1.92;;
75261;SDS011;63859;51.064;4.580;2023-07-13T15:53:12;5.13;;;1.98;;